sensor_id;sensor_type;location;lat;lon;timestamp;P1;durP1;ratioP1;P2;durP2;ratioP2
18576;SDS011;9418;52.694;13.294;2023-05-07T00:00:44;12.37;;;9.10;;
18576;SDS011;9418;52.694;13.294;2023-05-07T00:03:11;9.77;;;8.57;;
18576;SDS011;9418;52.694;13.294;2023-05-07T00:05:40;8.57;;;7.73;;
18576;SDS011;9418;52.694;13.294;2023-05-07T00:08:06;12.13;;;7.93;;
18576;SDS011;9418;52.694;13.294;2023-05-07T00:10:33;10.23;;;8.60;;
18576;SDS011;9418;52.694;13.294;2023-05-07T00:12:59;12.00;;;8.10;;
18576;SDS011;9418;52.694;13.294;2023-05-07T00:15:26;8.33;;;7.53;;
18576;SDS011;9418;52.694;13.294;2023-05-07T00:17:53;12.70;;;8.00;;
18576;SDS011;9418;52.694;13.294;2023-05-07T00:20:19;8.80;;;7.90;;
18576;SDS011;9418;52.694;13.294;2023-05-07T00:22:47;9.07;;;8.17;;
18576;SDS011;9418;52.694;13.294;2023-05-07T00:25:13;8.60;;;7.70;;
18576;SDS011;9418;52.694;13.294;2023-05-07T00:27:40;14.60;;;8.50;;
18576;SDS011;9418;52.694;13.294;2023-05-07T00:30:07;9.57;;;8.57;;
18576;SDS011;9418;52.694;13.294;2023-05-07T00:32:34;9.30;;;8.40;;
18576;SDS011;9418;52.694;13.294;2023-05-07T00:35:01;8.77;;;6.93;;
18576;SDS011;9418;52.694;13.294;2023-05-07T00:37:28;8.83;;;7.80;;
18576;SDS011;9418;52.694;13.294;2023-05-07T00:39:56;10.70;;;7.67;;
18576;SDS011;9418;52.694;13.294;2023-05-07T00:42:22;9.60;;;7.43;;
18576;SDS011;9418;52.694;13.294;2023-05-07T00:44:49;8.17;;;7.50;;
18576;SDS011;9418;52.694;13.294;2023-05-07T00:47:16;8.27;;;7.50;;
18576;SDS011;9418;52.694;13.294;2023-05-07T00:49:43;8.30;;;7.47;;
18576;SDS011;9418;52.694;13.294;2023-05-07T00:52:11;12.93;;;7.50;;
18576;SDS011;9418;52.694;13.294;2023-05-07T00:54:40;8.63;;;6.87;;
18576;SDS011;9418;52.694;13.294;2023-05-07T00:57:08;8.10;;;7.30;;
18576;SDS011;9418;52.694;13.294;2023-05-07T00:59:36;7.33;;;6.70;;
18576;SDS011;9418;52.694;13.294;2023-05-07T01:02:03;7.80;;;7.10;;
18576;SDS011;9418;52.694;13.294;2023-05-07T01:04:29;7.97;;;7.13;;
18576;SDS011;9418;52.694;13.294;2023-05-07T01:06:56;8.60;;;7.70;;
18576;SDS011;9418;52.694;13.294;2023-05-07T01:09:24;12.13;;;7.03;;
18576;SDS011;9418;52.694;13.294;2023-05-07T01:11:51;10.90;;;6.63;;
18576;SDS011;9418;52.694;13.294;2023-05-07T01:14:20;7.07;;;6.47;;
18576;SDS011;9418;52.694;13.294;2023-05-07T01:16:47;8.57;;;7.33;;
18576;SDS011;9418;52.694;13.294;2023-05-07T01:19:16;13.97;;;7.90;;
18576;SDS011;9418;52.694;13.294;2023-05-07T01:21:45;8.87;;;8.07;;
18576;SDS011;9418;52.694;13.294;2023-05-07T01:24:15;10.70;;;7.00;;
18576;SDS011;9418;52.694;13.294;2023-05-07T01:26:42;7.73;;;6.87;;
18576;SDS011;9418;52.694;13.294;2023-05-07T01:29:09;6.80;;;6.10;;
18576;SDS011;9418;52.694;13.294;2023-05-07T01:31:36;11.60;;;8.00;;
18576;SDS011;9418;52.694;13.294;2023-05-07T01:34:04;10.53;;;7.37;;
18576;SDS011;9418;52.694;13.294;2023-05-07T01:36:33;8.90;;;7.33;;
18576;SDS011;9418;52.694;13.294;2023-05-07T01:39:01;7.53;;;6.60;;
18576;SDS011;9418;52.694;13.294;2023-05-07T01:41:29;10.33;;;7.60;;
18576;SDS011;9418;52.694;13.294;2023-05-07T01:43:56;11.27;;;7.43;;
18576;SDS011;9418;52.694;13.294;2023-05-07T01:46:25;7.50;;;6.80;;
18576;SDS011;9418;52.694;13.294;2023-05-07T01:48:52;10.50;;;7.00;;
18576;SDS011;9418;52.694;13.294;2023-05-07T01:51:19;11.73;;;7.90;;
18576;SDS011;9418;52.694;13.294;2023-05-07T01:53:47;8.37;;;7.13;;
18576;SDS011;9418;52.694;13.294;2023-05-07T01:56:15;7.87;;;7.00;;
18576;SDS011;9418;52.694;13.294;2023-05-07T01:58:43;12.07;;;7.13;;
18576;SDS011;9418;52.694;13.294;2023-05-07T02:01:10;8.33;;;7.47;;
18576;SDS011;9418;52.694;13.294;2023-05-07T02:03:37;11.07;;;7.57;;
18576;SDS011;9418;52.694;13.294;2023-05-07T02:06:03;9.40;;;6.87;;
18576;SDS011;9418;52.694;13.294;2023-05-07T02:08:30;9.63;;;6.90;;
18576;SDS011;9418;52.694;13.294;2023-05-07T02:10:57;12.20;;;7.93;;
18576;SDS011;9418;52.694;13.294;2023-05-07T02:13:23;10.40;;;7.73;;
18576;SDS011;9418;52.694;13.294;2023-05-07T02:15:51;7.63;;;6.93;;
18576;SDS011;9418;52.694;13.294;2023-05-07T02:18:18;8.73;;;7.93;;
18576;SDS011;9418;52.694;13.294;2023-05-07T02:20:45;9.23;;;8.33;;
18576;SDS011;9418;52.694;13.294;2023-05-07T02:23:11;7.77;;;7.10;;
18576;SDS011;9418;52.694;13.294;2023-05-07T02:25:38;9.80;;;7.43;;
18576;SDS011;9418;52.694;13.294;2023-05-07T02:28:04;13.43;;;7.97;;
18576;SDS011;9418;52.694;13.294;2023-05-07T02:30:31;9.27;;;8.10;;
18576;SDS011;9418;52.694;13.294;2023-05-07T02:32:59;8.47;;;7.67;;
18576;SDS011;9418;52.694;13.294;2023-05-07T02:35:25;8.87;;;7.43;;
18576;SDS011;9418;52.694;13.294;2023-05-07T02:37:52;15.37;;;6.40;;
18576;SDS011;9418;52.694;13.294;2023-05-07T02:40:18;7.93;;;7.23;;
18576;SDS011;9418;52.694;13.294;2023-05-07T02:42:45;8.20;;;7.40;;
18576;SDS011;9418;52.694;13.294;2023-05-07T02:45:12;7.50;;;6.90;;
18576;SDS011;9418;52.694;13.294;2023-05-07T02:47:39;8.37;;;7.57;;
18576;SDS011;9418;52.694;13.294;2023-05-07T02:50:08;7.67;;;7.00;;
18576;SDS011;9418;52.694;13.294;2023-05-07T02:52:34;8.47;;;7.63;;
18576;SDS011;9418;52.694;13.294;2023-05-07T02:55:01;7.87;;;6.77;;
18576;SDS011;9418;52.694;13.294;2023-05-07T02:57:27;7.27;;;6.33;;
18576;SDS011;9418;52.694;13.294;2023-05-07T02:59:54;7.73;;;7.03;;
18576;SDS011;9418;52.694;13.294;2023-05-07T03:02:21;7.47;;;6.17;;
18576;SDS011;9418;52.694;13.294;2023-05-07T03:04:47;6.87;;;6.30;;
18576;SDS011;9418;52.694;13.294;2023-05-07T03:07:15;14.80;;;7.47;;
18576;SDS011;9418;52.694;13.294;2023-05-07T03:09:42;8.83;;;7.30;;
18576;SDS011;9418;52.694;13.294;2023-05-07T03:12:08;7.37;;;6.60;;
18576;SDS011;9418;52.694;13.294;2023-05-07T03:14:35;11.93;;;6.13;;
18576;SDS011;9418;52.694;13.294;2023-05-07T03:17:01;8.23;;;6.87;;
18576;SDS011;9418;52.694;13.294;2023-05-07T03:19:28;6.93;;;6.43;;
18576;SDS011;9418;52.694;13.294;2023-05-07T03:21:55;7.93;;;6.50;;
18576;SDS011;9418;52.694;13.294;2023-05-07T03:24:23;8.43;;;6.80;;
18576;SDS011;9418;52.694;13.294;2023-05-07T03:26:49;11.47;;;7.00;;
18576;SDS011;9418;52.694;13.294;2023-05-07T03:29:16;7.17;;;6.37;;
18576;SDS011;9418;52.694;13.294;2023-05-07T03:31:43;8.93;;;6.10;;
18576;SDS011;9418;52.694;13.294;2023-05-07T03:34:10;7.23;;;5.93;;
18576;SDS011;9418;52.694;13.294;2023-05-07T03:36:36;7.67;;;5.83;;
18576;SDS011;9418;52.694;13.294;2023-05-07T03:39:03;6.50;;;6.00;;
18576;SDS011;9418;52.694;13.294;2023-05-07T03:41:31;6.97;;;5.83;;
18576;SDS011;9418;52.694;13.294;2023-05-07T03:43:58;6.73;;;6.13;;
18576;SDS011;9418;52.694;13.294;2023-05-07T03:46:25;5.73;;;5.20;;
18576;SDS011;9418;52.694;13.294;2023-05-07T03:48:53;6.07;;;5.47;;
18576;SDS011;9418;52.694;13.294;2023-05-07T03:51:19;9.00;;;5.70;;
18576;SDS011;9418;52.694;13.294;2023-05-07T03:53:46;8.70;;;5.63;;
18576;SDS011;9418;52.694;13.294;2023-05-07T03:56:12;6.33;;;5.77;;
18576;SDS011;9418;52.694;13.294;2023-05-07T03:58:40;6.37;;;5.73;;
18576;SDS011;9418;52.694;13.294;2023-05-07T04:01:07;8.13;;;6.27;;
18576;SDS011;9418;52.694;13.294;2023-05-07T04:03:33;8.30;;;6.23;;
18576;SDS011;9418;52.694;13.294;2023-05-07T04:06:00;12.40;;;5.47;;
18576;SDS011;9418;52.694;13.294;2023-05-07T04:08:26;7.10;;;5.50;;
18576;SDS011;9418;52.694;13.294;2023-05-07T04:10:56;6.60;;;4.90;;
18576;SDS011;9418;52.694;13.294;2023-05-07T04:13:23;7.00;;;5.33;;
18576;SDS011;9418;52.694;13.294;2023-05-07T04:15:51;6.00;;;5.40;;
18576;SDS011;9418;52.694;13.294;2023-05-07T04:18:17;6.47;;;5.90;;
18576;SDS011;9418;52.694;13.294;2023-05-07T04:20:45;7.00;;;5.80;;
18576;SDS011;9418;52.694;13.294;2023-05-07T04:23:11;6.30;;;5.80;;
18576;SDS011;9418;52.694;13.294;2023-05-07T04:25:38;10.30;;;5.70;;
18576;SDS011;9418;52.694;13.294;2023-05-07T04:28:04;5.57;;;4.93;;
18576;SDS011;9418;52.694;13.294;2023-05-07T04:30:31;7.07;;;5.27;;
18576;SDS011;9418;52.694;13.294;2023-05-07T04:32:59;4.80;;;4.40;;
18576;SDS011;9418;52.694;13.294;2023-05-07T04:35:25;5.13;;;4.67;;
18576;SDS011;9418;52.694;13.294;2023-05-07T04:37:52;5.87;;;5.10;;
18576;SDS011;9418;52.694;13.294;2023-05-07T04:40:19;6.90;;;5.10;;
18576;SDS011;9418;52.694;13.294;2023-05-07T04:42:45;7.67;;;5.30;;
18576;SDS011;9418;52.694;13.294;2023-05-07T04:45:12;5.20;;;4.70;;
18576;SDS011;9418;52.694;13.294;2023-05-07T04:47:38;5.60;;;5.10;;
18576;SDS011;9418;52.694;13.294;2023-05-07T04:50:07;5.17;;;4.67;;
18576;SDS011;9418;52.694;13.294;2023-05-07T04:52:34;7.60;;;4.90;;
18576;SDS011;9418;52.694;13.294;2023-05-07T04:55:00;9.10;;;6.17;;
18576;SDS011;9418;52.694;13.294;2023-05-07T04:57:27;6.37;;;5.30;;
18576;SDS011;9418;52.694;13.294;2023-05-07T04:59:53;7.40;;;5.23;;
18576;SDS011;9418;52.694;13.294;2023-05-07T05:02:20;5.77;;;5.07;;
18576;SDS011;9418;52.694;13.294;2023-05-07T05:04:47;6.10;;;4.97;;
18576;SDS011;9418;52.694;13.294;2023-05-07T05:07:14;6.20;;;5.70;;
18576;SDS011;9418;52.694;13.294;2023-05-07T05:09:41;5.80;;;5.30;;
18576;SDS011;9418;52.694;13.294;2023-05-07T05:12:07;8.37;;;5.83;;
18576;SDS011;9418;52.694;13.294;2023-05-07T05:14:34;6.77;;;6.17;;
18576;SDS011;9418;52.694;13.294;2023-05-07T05:17:01;6.20;;;5.70;;
18576;SDS011;9418;52.694;13.294;2023-05-07T05:19:28;8.70;;;6.50;;
18576;SDS011;9418;52.694;13.294;2023-05-07T05:21:54;8.40;;;6.10;;
18576;SDS011;9418;52.694;13.294;2023-05-07T05:24:22;6.20;;;5.70;;
18576;SDS011;9418;52.694;13.294;2023-05-07T05:26:49;9.30;;;5.77;;
18576;SDS011;9418;52.694;13.294;2023-05-07T05:29:15;7.00;;;5.77;;
18576;SDS011;9418;52.694;13.294;2023-05-07T05:31:42;8.83;;;6.73;;
18576;SDS011;9418;52.694;13.294;2023-05-07T05:34:08;7.53;;;6.53;;
18576;SDS011;9418;52.694;13.294;2023-05-07T05:36:35;6.23;;;5.83;;
18576;SDS011;9418;52.694;13.294;2023-05-07T05:39:01;6.80;;;6.20;;
18576;SDS011;9418;52.694;13.294;2023-05-07T05:41:29;6.57;;;5.83;;
18576;SDS011;9418;52.694;13.294;2023-05-07T05:43:56;6.97;;;6.47;;
18576;SDS011;9418;52.694;13.294;2023-05-07T05:46:23;6.33;;;5.57;;
18576;SDS011;9418;52.694;13.294;2023-05-07T05:48:49;9.37;;;5.87;;
18576;SDS011;9418;52.694;13.294;2023-05-07T05:51:16;6.70;;;6.00;;
18576;SDS011;9418;52.694;13.294;2023-05-07T05:53:42;6.10;;;5.60;;
18576;SDS011;9418;52.694;13.294;2023-05-07T05:56:09;5.93;;;5.33;;
18576;SDS011;9418;52.694;13.294;2023-05-07T05:58:37;6.23;;;5.53;;
18576;SDS011;9418;52.694;13.294;2023-05-07T06:01:03;9.60;;;5.90;;
18576;SDS011;9418;52.694;13.294;2023-05-07T06:03:30;5.40;;;4.70;;
18576;SDS011;9418;52.694;13.294;2023-05-07T06:05:57;5.77;;;5.20;;
18576;SDS011;9418;52.694;13.294;2023-05-07T06:08:24;6.10;;;5.53;;
18576;SDS011;9418;52.694;13.294;2023-05-07T06:10:51;5.23;;;4.70;;
18576;SDS011;9418;52.694;13.294;2023-05-07T06:13:18;6.13;;;5.13;;
18576;SDS011;9418;52.694;13.294;2023-05-07T06:15:46;5.57;;;5.07;;
18576;SDS011;9418;52.694;13.294;2023-05-07T06:18:12;7.27;;;5.70;;
18576;SDS011;9418;52.694;13.294;2023-05-07T06:20:39;11.90;;;6.10;;
18576;SDS011;9418;52.694;13.294;2023-05-07T06:23:05;7.00;;;6.30;;
18576;SDS011;9418;52.694;13.294;2023-05-07T06:25:32;6.47;;;5.23;;
18576;SDS011;9418;52.694;13.294;2023-05-07T06:27:59;6.47;;;4.77;;
18576;SDS011;9418;52.694;13.294;2023-05-07T06:30:25;6.27;;;5.50;;
18576;SDS011;9418;52.694;13.294;2023-05-07T06:32:53;7.83;;;5.17;;
18576;SDS011;9418;52.694;13.294;2023-05-07T06:35:20;7.90;;;5.30;;
18576;SDS011;9418;52.694;13.294;2023-05-07T06:37:46;7.30;;;5.37;;
18576;SDS011;9418;52.694;13.294;2023-05-07T06:40:13;7.13;;;4.97;;
18576;SDS011;9418;52.694;13.294;2023-05-07T06:42:40;7.03;;;5.37;;
18576;SDS011;9418;52.694;13.294;2023-05-07T06:45:07;5.23;;;4.73;;
18576;SDS011;9418;52.694;13.294;2023-05-07T06:47:35;5.23;;;4.83;;
18576;SDS011;9418;52.694;13.294;2023-05-07T06:50:03;5.60;;;4.80;;
18576;SDS011;9418;52.694;13.294;2023-05-07T06:52:29;6.27;;;5.30;;
18576;SDS011;9418;52.694;13.294;2023-05-07T06:54:56;5.33;;;4.93;;
18576;SDS011;9418;52.694;13.294;2023-05-07T06:57:25;9.33;;;5.13;;
18576;SDS011;9418;52.694;13.294;2023-05-07T06:59:52;6.40;;;5.50;;
18576;SDS011;9418;52.694;13.294;2023-05-07T07:02:18;5.67;;;5.17;;
18576;SDS011;9418;52.694;13.294;2023-05-07T07:04:45;5.00;;;4.60;;
18576;SDS011;9418;52.694;13.294;2023-05-07T07:07:13;5.90;;;4.40;;
18576;SDS011;9418;52.694;13.294;2023-05-07T07:09:39;5.67;;;5.10;;
18576;SDS011;9418;52.694;13.294;2023-05-07T07:12:06;4.73;;;4.33;;
18576;SDS011;9418;52.694;13.294;2023-05-07T07:14:32;6.23;;;4.77;;
18576;SDS011;9418;52.694;13.294;2023-05-07T07:16:59;7.70;;;5.00;;
18576;SDS011;9418;52.694;13.294;2023-05-07T07:19:26;4.67;;;4.30;;
18576;SDS011;9418;52.694;13.294;2023-05-07T07:21:52;4.67;;;4.37;;
18576;SDS011;9418;52.694;13.294;2023-05-07T07:24:20;4.87;;;4.17;;
18576;SDS011;9418;52.694;13.294;2023-05-07T07:26:47;4.73;;;4.13;;
18576;SDS011;9418;52.694;13.294;2023-05-07T07:29:13;4.23;;;3.83;;
18576;SDS011;9418;52.694;13.294;2023-05-07T07:31:40;3.90;;;3.60;;
18576;SDS011;9418;52.694;13.294;2023-05-07T07:34:06;5.30;;;3.77;;
18576;SDS011;9418;52.694;13.294;2023-05-07T07:36:33;4.40;;;4.00;;
18576;SDS011;9418;52.694;13.294;2023-05-07T07:38:59;4.13;;;3.80;;
18576;SDS011;9418;52.694;13.294;2023-05-07T07:41:28;3.77;;;3.47;;
18576;SDS011;9418;52.694;13.294;2023-05-07T07:43:54;4.60;;;3.87;;
18576;SDS011;9418;52.694;13.294;2023-05-07T07:46:21;5.90;;;4.30;;
18576;SDS011;9418;52.694;13.294;2023-05-07T07:48:47;4.40;;;4.00;;
18576;SDS011;9418;52.694;13.294;2023-05-07T07:51:14;3.60;;;3.30;;
18576;SDS011;9418;52.694;13.294;2023-05-07T07:53:40;2.80;;;2.70;;
18576;SDS011;9418;52.694;13.294;2023-05-07T07:56:07;3.03;;;2.93;;
18576;SDS011;9418;52.694;13.294;2023-05-07T07:58:35;5.43;;;3.27;;
18576;SDS011;9418;52.694;13.294;2023-05-07T08:01:03;4.03;;;2.90;;
18576;SDS011;9418;52.694;13.294;2023-05-07T08:03:29;3.20;;;3.00;;
18576;SDS011;9418;52.694;13.294;2023-05-07T08:05:57;3.03;;;2.80;;
18576;SDS011;9418;52.694;13.294;2023-05-07T08:08:24;3.27;;;2.73;;
18576;SDS011;9418;52.694;13.294;2023-05-07T08:10:51;7.50;;;3.20;;
18576;SDS011;9418;52.694;13.294;2023-05-07T08:13:17;3.23;;;2.97;;
18576;SDS011;9418;52.694;13.294;2023-05-07T08:15:46;3.63;;;2.70;;
18576;SDS011;9418;52.694;13.294;2023-05-07T08:18:12;3.17;;;2.60;;
18576;SDS011;9418;52.694;13.294;2023-05-07T08:20:39;5.27;;;3.27;;
18576;SDS011;9418;52.694;13.294;2023-05-07T08:23:07;5.70;;;3.17;;
18576;SDS011;9418;52.694;13.294;2023-05-07T08:25:34;4.23;;;3.40;;
18576;SDS011;9418;52.694;13.294;2023-05-07T08:28:01;7.30;;;2.30;;
18576;SDS011;9418;52.694;13.294;2023-05-07T08:30:28;2.90;;;2.70;;
18576;SDS011;9418;52.694;13.294;2023-05-07T08:32:56;3.10;;;2.80;;
18576;SDS011;9418;52.694;13.294;2023-05-07T08:35:22;2.43;;;2.33;;
18576;SDS011;9418;52.694;13.294;2023-05-07T08:37:50;3.00;;;2.47;;
18576;SDS011;9418;52.694;13.294;2023-05-07T08:40:17;2.60;;;2.50;;
18576;SDS011;9418;52.694;13.294;2023-05-07T08:42:43;2.90;;;2.60;;
18576;SDS011;9418;52.694;13.294;2023-05-07T08:45:11;3.03;;;2.70;;
18576;SDS011;9418;52.694;13.294;2023-05-07T08:47:40;4.97;;;2.67;;
18576;SDS011;9418;52.694;13.294;2023-05-07T08:50:11;7.13;;;2.57;;
18576;SDS011;9418;52.694;13.294;2023-05-07T08:52:39;2.90;;;2.63;;
18576;SDS011;9418;52.694;13.294;2023-05-07T08:55:06;10.00;;;2.47;;
18576;SDS011;9418;52.694;13.294;2023-05-07T08:57:34;3.63;;;2.97;;
18576;SDS011;9418;52.694;13.294;2023-05-07T09:00:01;3.73;;;2.90;;
18576;SDS011;9418;52.694;13.294;2023-05-07T09:02:28;3.37;;;3.07;;
18576;SDS011;9418;52.694;13.294;2023-05-07T09:04:55;3.47;;;2.77;;
18576;SDS011;9418;52.694;13.294;2023-05-07T09:07:23;2.70;;;2.53;;
18576;SDS011;9418;52.694;13.294;2023-05-07T09:09:50;3.17;;;2.97;;
18576;SDS011;9418;52.694;13.294;2023-05-07T09:12:17;3.70;;;3.40;;
18576;SDS011;9418;52.694;13.294;2023-05-07T09:14:44;4.97;;;3.10;;
18576;SDS011;9418;52.694;13.294;2023-05-07T09:17:11;3.37;;;3.00;;
18576;SDS011;9418;52.694;13.294;2023-05-07T09:19:38;3.03;;;2.63;;
18576;SDS011;9418;52.694;13.294;2023-05-07T09:22:05;3.10;;;2.80;;
18576;SDS011;9418;52.694;13.294;2023-05-07T09:24:34;3.07;;;2.87;;
18576;SDS011;9418;52.694;13.294;2023-05-07T09:27:03;3.07;;;2.87;;
18576;SDS011;9418;52.694;13.294;2023-05-07T09:29:30;4.43;;;3.00;;
18576;SDS011;9418;52.694;13.294;2023-05-07T09:32:00;3.63;;;2.70;;
18576;SDS011;9418;52.694;13.294;2023-05-07T09:34:27;5.73;;;2.90;;
18576;SDS011;9418;52.694;13.294;2023-05-07T09:36:54;9.10;;;3.10;;
18576;SDS011;9418;52.694;13.294;2023-05-07T09:39:21;2.73;;;2.50;;
18576;SDS011;9418;52.694;13.294;2023-05-07T09:41:50;3.10;;;2.90;;
18576;SDS011;9418;52.694;13.294;2023-05-07T09:44:19;16.17;;;3.13;;
18576;SDS011;9418;52.694;13.294;2023-05-07T09:46:46;4.50;;;2.77;;
18576;SDS011;9418;52.694;13.294;2023-05-07T09:49:20;4.33;;;2.20;;
18576;SDS011;9418;52.694;13.294;2023-05-07T09:51:48;5.90;;;2.10;;
18576;SDS011;9418;52.694;13.294;2023-05-07T09:54:16;3.37;;;2.47;;
18576;SDS011;9418;52.694;13.294;2023-05-07T09:56:42;2.40;;;2.20;;
18576;SDS011;9418;52.694;13.294;2023-05-07T09:59:12;2.67;;;2.47;;
18576;SDS011;9418;52.694;13.294;2023-05-07T10:01:40;7.00;;;2.77;;
18576;SDS011;9418;52.694;13.294;2023-05-07T10:04:07;6.13;;;3.30;;
18576;SDS011;9418;52.694;13.294;2023-05-07T10:06:35;2.20;;;2.00;;
18576;SDS011;9418;52.694;13.294;2023-05-07T10:09:02;2.53;;;2.33;;
18576;SDS011;9418;52.694;13.294;2023-05-07T10:11:31;2.20;;;2.00;;
18576;SDS011;9418;52.694;13.294;2023-05-07T10:13:58;3.47;;;2.67;;
18576;SDS011;9418;52.694;13.294;2023-05-07T10:16:28;3.30;;;3.00;;
18576;SDS011;9418;52.694;13.294;2023-05-07T10:18:57;4.60;;;2.90;;
18576;SDS011;9418;52.694;13.294;2023-05-07T10:21:24;4.30;;;2.77;;
18576;SDS011;9418;52.694;13.294;2023-05-07T10:23:58;5.43;;;3.83;;
18576;SDS011;9418;52.694;13.294;2023-05-07T10:26:25;5.53;;;5.03;;
18576;SDS011;9418;52.694;13.294;2023-05-07T10:28:56;7.37;;;5.00;;
18576;SDS011;9418;52.694;13.294;2023-05-07T10:31:33;5.17;;;4.07;;
18576;SDS011;9418;52.694;13.294;2023-05-07T10:34:12;3.83;;;3.47;;
18576;SDS011;9418;52.694;13.294;2023-05-07T10:36:42;3.20;;;3.00;;
18576;SDS011;9418;52.694;13.294;2023-05-07T10:39:10;2.97;;;2.70;;
18576;SDS011;9418;52.694;13.294;2023-05-07T10:41:36;6.73;;;5.53;;
18576;SDS011;9418;52.694;13.294;2023-05-07T10:44:03;14.83;;;8.70;;
18576;SDS011;9418;52.694;13.294;2023-05-07T10:46:32;7.87;;;4.50;;
18576;SDS011;9418;52.694;13.294;2023-05-07T10:49:06;3.07;;;2.73;;
18576;SDS011;9418;52.694;13.294;2023-05-07T10:51:35;4.13;;;3.07;;
18576;SDS011;9418;52.694;13.294;2023-05-07T10:54:20;2.87;;;2.60;;
18576;SDS011;9418;52.694;13.294;2023-05-07T10:56:48;1.97;;;1.87;;
18576;SDS011;9418;52.694;13.294;2023-05-07T10:59:29;6.60;;;2.07;;
18576;SDS011;9418;52.694;13.294;2023-05-07T11:02:08;2.50;;;2.30;;
18576;SDS011;9418;52.694;13.294;2023-05-07T11:04:36;2.53;;;2.33;;
18576;SDS011;9418;52.694;13.294;2023-05-07T11:09:58;3.83;;;3.10;;
18576;SDS011;9418;52.694;13.294;2023-05-07T11:12:47;2.50;;;2.30;;
18576;SDS011;9418;52.694;13.294;2023-05-07T11:15:16;2.23;;;2.07;;
18576;SDS011;9418;52.694;13.294;2023-05-07T11:18:09;2.03;;;1.93;;
18576;SDS011;9418;52.694;13.294;2023-05-07T11:20:53;3.13;;;1.73;;
18576;SDS011;9418;52.694;13.294;2023-05-07T11:26:21;3.97;;;2.40;;
18576;SDS011;9418;52.694;13.294;2023-05-07T11:28:48;7.38;;;1.50;;
18576;SDS011;9418;52.694;13.294;2023-05-07T11:31:15;1.53;;;1.43;;
18576;SDS011;9418;52.694;13.294;2023-05-07T11:33:49;3.27;;;1.80;;
18576;SDS011;9418;52.694;13.294;2023-05-07T11:36:16;9.90;;;2.40;;
18576;SDS011;9418;52.694;13.294;2023-05-07T11:38:44;5.13;;;2.00;;
18576;SDS011;9418;52.694;13.294;2023-05-07T11:41:10;4.10;;;2.27;;
18576;SDS011;9418;52.694;13.294;2023-05-07T11:43:37;1.90;;;1.80;;
18576;SDS011;9418;52.694;13.294;2023-05-07T11:46:05;3.00;;;1.97;;
18576;SDS011;9418;52.694;13.294;2023-05-07T11:48:34;1.67;;;1.50;;
18576;SDS011;9418;52.694;13.294;2023-05-07T11:51:02;4.60;;;2.03;;
18576;SDS011;9418;52.694;13.294;2023-05-07T11:53:35;4.50;;;1.70;;
18576;SDS011;9418;52.694;13.294;2023-05-07T11:56:05;1.93;;;1.70;;
18576;SDS011;9418;52.694;13.294;2023-05-07T11:58:32;2.17;;;1.80;;
18576;SDS011;9418;52.694;13.294;2023-05-07T12:00:59;2.87;;;2.00;;
18576;SDS011;9418;52.694;13.294;2023-05-07T12:03:26;2.33;;;2.00;;
18576;SDS011;9418;52.694;13.294;2023-05-07T12:05:52;1.80;;;1.60;;
18576;SDS011;9418;52.694;13.294;2023-05-07T12:08:21;1.97;;;1.77;;
18576;SDS011;9418;52.694;13.294;2023-05-07T12:10:48;9.13;;;2.20;;
18576;SDS011;9418;52.694;13.294;2023-05-07T12:13:16;2.13;;;1.70;;
18576;SDS011;9418;52.694;13.294;2023-05-07T12:15:43;6.03;;;1.53;;
18576;SDS011;9418;52.694;13.294;2023-05-07T12:18:09;1.90;;;1.80;;
18576;SDS011;9418;52.694;13.294;2023-05-07T12:20:37;2.10;;;2.00;;
18576;SDS011;9418;52.694;13.294;2023-05-07T12:23:03;3.80;;;1.70;;
18576;SDS011;9418;52.694;13.294;2023-05-07T12:25:32;5.63;;;1.80;;
18576;SDS011;9418;52.694;13.294;2023-05-07T12:28:00;2.83;;;1.40;;
18576;SDS011;9418;52.694;13.294;2023-05-07T12:30:27;4.27;;;1.80;;
18576;SDS011;9418;52.694;13.294;2023-05-07T12:32:55;1.87;;;1.77;;
18576;SDS011;9418;52.694;13.294;2023-05-07T12:35:27;1.87;;;1.77;;
18576;SDS011;9418;52.694;13.294;2023-05-07T12:37:54;3.37;;;1.80;;
18576;SDS011;9418;52.694;13.294;2023-05-07T12:40:21;2.43;;;1.87;;
18576;SDS011;9418;52.694;13.294;2023-05-07T12:42:52;8.03;;;1.67;;
18576;SDS011;9418;52.694;13.294;2023-05-07T12:45:20;1.77;;;1.63;;
18576;SDS011;9418;52.694;13.294;2023-05-07T12:47:47;2.10;;;1.67;;
18576;SDS011;9418;52.694;13.294;2023-05-07T12:50:13;1.60;;;1.50;;
18576;SDS011;9418;52.694;13.294;2023-05-07T12:52:41;4.93;;;1.90;;
18576;SDS011;9418;52.694;13.294;2023-05-07T12:55:09;4.93;;;1.83;;
18576;SDS011;9418;52.694;13.294;2023-05-07T12:57:38;3.70;;;1.77;;
18576;SDS011;9418;52.694;13.294;2023-05-07T13:00:07;1.30;;;1.20;;
18576;SDS011;9418;52.694;13.294;2023-05-07T13:02:37;1.40;;;1.30;;
18576;SDS011;9418;52.694;13.294;2023-05-07T13:05:04;1.80;;;1.70;;
18576;SDS011;9418;52.694;13.294;2023-05-07T13:07:31;1.63;;;1.53;;
18576;SDS011;9418;52.694;13.294;2023-05-07T13:09:58;1.87;;;1.50;;
18576;SDS011;9418;52.694;13.294;2023-05-07T13:12:25;2.03;;;1.93;;
18576;SDS011;9418;52.694;13.294;2023-05-07T13:14:51;2.63;;;1.80;;
18576;SDS011;9418;52.694;13.294;2023-05-07T13:17:19;1.97;;;1.87;;
18576;SDS011;9418;52.694;13.294;2023-05-07T13:19:46;6.30;;;1.93;;
18576;SDS011;9418;52.694;13.294;2023-05-07T13:22:12;1.70;;;1.60;;
18576;SDS011;9418;52.694;13.294;2023-05-07T13:24:39;7.10;;;2.03;;
18576;SDS011;9418;52.694;13.294;2023-05-07T13:27:06;2.07;;;1.87;;
18576;SDS011;9418;52.694;13.294;2023-05-07T13:29:33;4.17;;;2.47;;
18576;SDS011;9418;52.694;13.294;2023-05-07T13:31:59;1.57;;;1.47;;
18576;SDS011;9418;52.694;13.294;2023-05-07T13:34:27;1.33;;;1.33;;
18576;SDS011;9418;52.694;13.294;2023-05-07T13:36:54;3.70;;;1.90;;
18576;SDS011;9418;52.694;13.294;2023-05-07T13:39:21;1.80;;;1.20;;
18576;SDS011;9418;52.694;13.294;2023-05-07T13:41:48;4.20;;;1.67;;
18576;SDS011;9418;52.694;13.294;2023-05-07T13:44:14;4.57;;;1.90;;
18576;SDS011;9418;52.694;13.294;2023-05-07T13:46:41;4.93;;;1.53;;
18576;SDS011;9418;52.694;13.294;2023-05-07T13:49:07;6.53;;;1.57;;
18576;SDS011;9418;52.694;13.294;2023-05-07T13:51:37;2.40;;;1.70;;
18576;SDS011;9418;52.694;13.294;2023-05-07T13:54:04;1.93;;;1.53;;
18576;SDS011;9418;52.694;13.294;2023-05-07T13:56:30;1.80;;;1.60;;
18576;SDS011;9418;52.694;13.294;2023-05-07T13:58:57;1.70;;;1.60;;
18576;SDS011;9418;52.694;13.294;2023-05-07T14:01:23;1.53;;;1.43;;
18576;SDS011;9418;52.694;13.294;2023-05-07T14:03:50;3.20;;;1.70;;
18576;SDS011;9418;52.694;13.294;2023-05-07T14:06:17;1.70;;;1.60;;
18576;SDS011;9418;52.694;13.294;2023-05-07T14:08:44;8.10;;;1.80;;
18576;SDS011;9418;52.694;13.294;2023-05-07T14:11:11;2.60;;;1.80;;
18576;SDS011;9418;52.694;13.294;2023-05-07T14:13:37;1.60;;;1.50;;
18576;SDS011;9418;52.694;13.294;2023-05-07T14:16:04;1.53;;;1.20;;
18576;SDS011;9418;52.694;13.294;2023-05-07T14:18:31;3.00;;;1.70;;
18576;SDS011;9418;52.694;13.294;2023-05-07T14:20:59;1.50;;;1.40;;
18576;SDS011;9418;52.694;13.294;2023-05-07T14:23:25;10.67;;;1.67;;
18576;SDS011;9418;52.694;13.294;2023-05-07T14:25:54;1.63;;;1.63;;
18576;SDS011;9418;52.694;13.294;2023-05-07T14:28:22;1.60;;;1.50;;
18576;SDS011;9418;52.694;13.294;2023-05-07T14:30:48;1.40;;;1.30;;
18576;SDS011;9418;52.694;13.294;2023-05-07T14:33:15;1.50;;;1.40;;
18576;SDS011;9418;52.694;13.294;2023-05-07T14:35:41;13.03;;;1.50;;
18576;SDS011;9418;52.694;13.294;2023-05-07T14:38:12;4.67;;;2.00;;
18576;SDS011;9418;52.694;13.294;2023-05-07T14:40:39;3.40;;;1.57;;
18576;SDS011;9418;52.694;13.294;2023-05-07T14:43:07;2.20;;;1.90;;
18576;SDS011;9418;52.694;13.294;2023-05-07T14:45:34;1.80;;;1.70;;
18576;SDS011;9418;52.694;13.294;2023-05-07T14:48:00;1.97;;;1.83;;
18576;SDS011;9418;52.694;13.294;2023-05-07T14:50:27;2.50;;;1.60;;
18576;SDS011;9418;52.694;13.294;2023-05-07T14:52:53;3.93;;;1.50;;